sensor_id;sensor_type;location;lat;lon;timestamp;P1;durP1;ratioP1;P2;durP2;ratioP2
54899;SDS011;40801;41.924;25.562;2023-01-01T00:01:20;52.75;;;44.75;;
54899;SDS011;40801;41.924;25.562;2023-01-01T00:03:49;55.03;;;45.53;;
54899;SDS011;40801;41.924;25.562;2023-01-01T00:06:15;48.00;;;40.92;;
54899;SDS011;40801;41.924;25.562;2023-01-01T00:08:41;44.92;;;37.95;;
54899;SDS011;40801;41.924;25.562;2023-01-01T00:11:07;39.83;;;35.55;;
54899;SDS011;40801;41.924;25.562;2023-01-01T00:13:34;43.88;;;35.70;;
54899;SDS011;40801;41.924;25.562;2023-01-01T00:16:08;39.03;;;34.17;;
54899;SDS011;40801;41.924;25.562;2023-01-01T00:18:35;41.25;;;34.55;;
54899;SDS011;40801;41.924;25.562;2023-01-01T00:21:12;40.05;;;33.67;;
54899;SDS011;40801;41.924;25.562;2023-01-01T00:23:38;45.03;;;38.70;;
54899;SDS011;40801;41.924;25.562;2023-01-01T00:26:11;46.33;;;35.53;;
54899;SDS011;40801;41.924;25.562;2023-01-01T00:28:38;38.50;;;32.40;;
54899;SDS011;40801;41.924;25.562;2023-01-01T00:31:07;40.85;;;33.50;;
54899;SDS011;40801;41.924;25.562;2023-01-01T00:36:32;48.42;;;34.40;;
54899;SDS011;40801;41.924;25.562;2023-01-01T00:38:52;39.33;;;31.85;;
54899;SDS011;40801;41.924;25.562;2023-01-01T00:41:18;41.38;;;31.70;;
54899;SDS011;40801;41.924;25.562;2023-01-01T00:43:44;39.42;;;33.13;;
54899;SDS011;40801;41.924;25.562;2023-01-01T00:46:10;37.97;;;29.58;;
54899;SDS011;40801;41.924;25.562;2023-01-01T00:48:35;38.58;;;32.45;;
54899;SDS011;40801;41.924;25.562;2023-01-01T00:51:01;33.83;;;29.15;;
54899;SDS011;40801;41.924;25.562;2023-01-01T00:53:28;32.80;;;28.55;;
54899;SDS011;40801;41.924;25.562;2023-01-01T00:55:53;30.30;;;26.80;;
54899;SDS011;40801;41.924;25.562;2023-01-01T00:58:21;35.45;;;29.20;;
54899;SDS011;40801;41.924;25.562;2023-01-01T01:00:48;31.73;;;28.15;;
54899;SDS011;40801;41.924;25.562;2023-01-01T01:03:15;31.77;;;26.25;;
54899;SDS011;40801;41.924;25.562;2023-01-01T01:05:54;34.38;;;27.48;;
54899;SDS011;40801;41.924;25.562;2023-01-01T01:08:29;34.40;;;27.77;;
54899;SDS011;40801;41.924;25.562;2023-01-01T01:11:16;34.20;;;26.83;;
54899;SDS011;40801;41.924;25.562;2023-01-01T01:13:44;31.60;;;27.33;;
54899;SDS011;40801;41.924;25.562;2023-01-01T01:16:13;32.17;;;26.58;;
54899;SDS011;40801;41.924;25.562;2023-01-01T01:18:43;30.80;;;25.80;;
54899;SDS011;40801;41.924;25.562;2023-01-01T01:21:09;33.22;;;27.30;;
54899;SDS011;40801;41.924;25.562;2023-01-01T01:23:35;31.77;;;25.45;;
54899;SDS011;40801;41.924;25.562;2023-01-01T01:26:11;31.83;;;24.80;;
54899;SDS011;40801;41.924;25.562;2023-01-01T01:28:38;33.40;;;25.45;;
54899;SDS011;40801;41.924;25.562;2023-01-01T01:31:04;32.97;;;27.50;;
54899;SDS011;40801;41.924;25.562;2023-01-01T01:33:31;33.75;;;28.70;;
54899;SDS011;40801;41.924;25.562;2023-01-01T01:35:56;36.97;;;29.80;;
54899;SDS011;40801;41.924;25.562;2023-01-01T01:38:22;37.63;;;26.05;;
54899;SDS011;40801;41.924;25.562;2023-01-01T01:40:48;39.30;;;31.42;;
54899;SDS011;40801;41.924;25.562;2023-01-01T01:43:23;31.80;;;25.58;;
54899;SDS011;40801;41.924;25.562;2023-01-01T01:48:32;36.75;;;28.10;;
54899;SDS011;40801;41.924;25.562;2023-01-01T01:51:03;38.17;;;28.00;;
54899;SDS011;40801;41.924;25.562;2023-01-01T01:53:29;30.63;;;24.42;;
54899;SDS011;40801;41.924;25.562;2023-01-01T01:56:03;30.73;;;25.00;;
54899;SDS011;40801;41.924;25.562;2023-01-01T01:58:32;33.08;;;24.40;;
54899;SDS011;40801;41.924;25.562;2023-01-01T02:00:58;28.42;;;23.77;;
54899;SDS011;40801;41.924;25.562;2023-01-01T02:03:30;28.20;;;25.08;;
54899;SDS011;40801;41.924;25.562;2023-01-01T02:06:01;29.00;;;25.80;;
54899;SDS011;40801;41.924;25.562;2023-01-01T02:08:27;29.95;;;24.35;;
54899;SDS011;40801;41.924;25.562;2023-01-01T02:10:54;31.30;;;26.30;;
54899;SDS011;40801;41.924;25.562;2023-01-01T02:13:19;31.67;;;25.30;;
54899;SDS011;40801;41.924;25.562;2023-01-01T02:15:53;30.83;;;24.65;;
54899;SDS011;40801;41.924;25.562;2023-01-01T02:18:24;33.28;;;26.45;;
54899;SDS011;40801;41.924;25.562;2023-01-01T02:21:04;31.17;;;25.63;;
54899;SDS011;40801;41.924;25.562;2023-01-01T02:32:08;29.88;;;22.70;;
54899;SDS011;40801;41.924;25.562;2023-01-01T02:34:51;29.83;;;23.52;;
54899;SDS011;40801;41.924;25.562;2023-01-01T02:37:22;29.23;;;23.60;;
54899;SDS011;40801;41.924;25.562;2023-01-01T02:39:52;28.52;;;24.90;;
54899;SDS011;40801;41.924;25.562;2023-01-01T02:42:22;32.67;;;25.23;;
54899;SDS011;40801;41.924;25.562;2023-01-01T02:44:51;29.58;;;23.67;;
54899;SDS011;40801;41.924;25.562;2023-01-01T02:47:19;27.63;;;23.42;;
54899;SDS011;40801;41.924;25.562;2023-01-01T02:49:47;28.20;;;23.42;;
54899;SDS011;40801;41.924;25.562;2023-01-01T02:55:33;26.88;;;23.10;;
54899;SDS011;40801;41.924;25.562;2023-01-01T02:58:21;27.90;;;23.38;;
54899;SDS011;40801;41.924;25.562;2023-01-01T03:01:18;24.05;;;21.42;;
54899;SDS011;40801;41.924;25.562;2023-01-01T03:07:22;19.95;;;17.70;;
54899;SDS011;40801;41.924;25.562;2023-01-01T03:12:08;22.33;;;18.75;;
54899;SDS011;40801;41.924;25.562;2023-01-01T03:17:06;28.63;;;24.10;;
54899;SDS011;40801;41.924;25.562;2023-01-01T03:19:36;27.23;;;21.95;;
54899;SDS011;40801;41.924;25.562;2023-01-01T03:22:11;26.45;;;21.70;;
54899;SDS011;40801;41.924;25.562;2023-01-01T03:27:17;33.60;;;27.38;;
54899;SDS011;40801;41.924;25.562;2023-01-01T03:29:47;22.95;;;20.63;;
54899;SDS011;40801;41.924;25.562;2023-01-01T03:32:17;22.65;;;20.35;;
54899;SDS011;40801;41.924;25.562;2023-01-01T03:34:48;23.50;;;18.90;;
54899;SDS011;40801;41.924;25.562;2023-01-01T03:37:21;21.40;;;17.60;;
54899;SDS011;40801;41.924;25.562;2023-01-01T03:39:50;25.67;;;22.05;;
54899;SDS011;40801;41.924;25.562;2023-01-01T03:44:48;20.88;;;16.92;;
54899;SDS011;40801;41.924;25.562;2023-01-01T03:47:18;21.73;;;18.90;;
54899;SDS011;40801;41.924;25.562;2023-01-01T03:49:44;24.77;;;19.08;;
54899;SDS011;40801;41.924;25.562;2023-01-01T03:57:42;24.02;;;19.38;;
54899;SDS011;40801;41.924;25.562;2023-01-01T04:00:17;20.13;;;16.88;;
54899;SDS011;40801;41.924;25.562;2023-01-01T04:02:56;21.38;;;18.83;;
54899;SDS011;40801;41.924;25.562;2023-01-01T04:05:26;26.35;;;18.45;;
54899;SDS011;40801;41.924;25.562;2023-01-01T04:07:53;22.70;;;17.80;;
54899;SDS011;40801;41.924;25.562;2023-01-01T04:10:20;20.35;;;18.20;;
54899;SDS011;40801;41.924;25.562;2023-01-01T04:12:51;21.55;;;18.88;;
54899;SDS011;40801;41.924;25.562;2023-01-01T04:15:23;22.23;;;17.95;;
54899;SDS011;40801;41.924;25.562;2023-01-01T04:17:50;21.48;;;17.45;;
54899;SDS011;40801;41.924;25.562;2023-01-01T04:20:16;21.52;;;17.70;;
54899;SDS011;40801;41.924;25.562;2023-01-01T04:22:42;26.63;;;21.33;;
54899;SDS011;40801;41.924;25.562;2023-01-01T04:25:08;22.48;;;18.92;;
54899;SDS011;40801;41.924;25.562;2023-01-01T04:27:34;21.90;;;18.75;;
54899;SDS011;40801;41.924;25.562;2023-01-01T04:30:00;24.70;;;20.35;;
54899;SDS011;40801;41.924;25.562;2023-01-01T04:32:26;23.15;;;19.52;;
54899;SDS011;40801;41.924;25.562;2023-01-01T04:34:51;23.77;;;20.05;;
54899;SDS011;40801;41.924;25.562;2023-01-01T04:37:16;26.75;;;22.90;;
54899;SDS011;40801;41.924;25.562;2023-01-01T04:39:42;25.52;;;21.10;;
54899;SDS011;40801;41.924;25.562;2023-01-01T04:42:08;27.20;;;21.65;;
54899;SDS011;40801;41.924;25.562;2023-01-01T04:44:33;24.95;;;19.58;;
54899;SDS011;40801;41.924;25.562;2023-01-01T04:46:59;24.35;;;20.27;;
54899;SDS011;40801;41.924;25.562;2023-01-01T04:49:24;27.67;;;21.35;;
54899;SDS011;40801;41.924;25.562;2023-01-01T04:51:49;24.52;;;19.27;;
54899;SDS011;40801;41.924;25.562;2023-01-01T04:54:15;34.03;;;22.17;;
54899;SDS011;40801;41.924;25.562;2023-01-01T04:56:40;31.42;;;22.30;;
54899;SDS011;40801;41.924;25.562;2023-01-01T04:59:06;34.67;;;26.35;;
54899;SDS011;40801;41.924;25.562;2023-01-01T05:01:31;34.78;;;26.15;;
54899;SDS011;40801;41.924;25.562;2023-01-01T05:03:57;33.00;;;23.02;;
54899;SDS011;40801;41.924;25.562;2023-01-01T05:06:23;31.50;;;22.23;;
54899;SDS011;40801;41.924;25.562;2023-01-01T05:08:50;36.10;;;25.20;;
54899;SDS011;40801;41.924;25.562;2023-01-01T05:11:23;32.95;;;23.80;;
54899;SDS011;40801;41.924;25.562;2023-01-01T05:13:53;33.83;;;25.23;;
54899;SDS011;40801;41.924;25.562;2023-01-01T05:16:20;30.35;;;21.70;;
54899;SDS011;40801;41.924;25.562;2023-01-01T05:18:48;29.77;;;24.02;;
54899;SDS011;40801;41.924;25.562;2023-01-01T05:21:18;33.13;;;25.02;;
54899;SDS011;40801;41.924;25.562;2023-01-01T05:23:45;31.70;;;23.55;;
54899;SDS011;40801;41.924;25.562;2023-01-01T05:26:15;42.72;;;32.70;;
54899;SDS011;40801;41.924;25.562;2023-01-01T05:28:47;35.40;;;28.25;;
54899;SDS011;40801;41.924;25.562;2023-01-01T05:31:13;32.53;;;25.38;;
54899;SDS011;40801;41.924;25.562;2023-01-01T05:33:40;29.20;;;24.80;;
54899;SDS011;40801;41.924;25.562;2023-01-01T05:36:06;34.70;;;28.13;;
54899;SDS011;40801;41.924;25.562;2023-01-01T05:38:33;28.58;;;23.75;;
54899;SDS011;40801;41.924;25.562;2023-01-01T05:41:04;27.00;;;23.63;;
54899;SDS011;40801;41.924;25.562;2023-01-01T05:43:31;27.70;;;24.48;;
54899;SDS011;40801;41.924;25.562;2023-01-01T05:46:00;29.02;;;25.55;;
54899;SDS011;40801;41.924;25.562;2023-01-01T05:48:29;29.63;;;23.42;;
54899;SDS011;40801;41.924;25.562;2023-01-01T05:51:05;27.45;;;24.58;;
54899;SDS011;40801;41.924;25.562;2023-01-01T05:53:35;26.55;;;22.35;;
54899;SDS011;40801;41.924;25.562;2023-01-01T05:56:01;26.05;;;23.38;;
54899;SDS011;40801;41.924;25.562;2023-01-01T05:58:27;31.48;;;25.77;;
54899;SDS011;40801;41.924;25.562;2023-01-01T06:00:53;29.77;;;26.02;;
54899;SDS011;40801;41.924;25.562;2023-01-01T06:03:19;33.47;;;25.52;;
54899;SDS011;40801;41.924;25.562;2023-01-01T06:05:45;34.03;;;29.15;;
54899;SDS011;40801;41.924;25.562;2023-01-01T06:08:11;39.70;;;33.63;;
54899;SDS011;40801;41.924;25.562;2023-01-01T06:10:36;40.40;;;33.35;;
54899;SDS011;40801;41.924;25.562;2023-01-01T06:13:02;39.95;;;32.85;;
54899;SDS011;40801;41.924;25.562;2023-01-01T06:15:27;44.20;;;35.13;;
54899;SDS011;40801;41.924;25.562;2023-01-01T06:17:53;44.92;;;34.85;;
54899;SDS011;40801;41.924;25.562;2023-01-01T06:20:18;45.88;;;35.22;;
54899;SDS011;40801;41.924;25.562;2023-01-01T06:22:44;49.92;;;36.65;;
54899;SDS011;40801;41.924;25.562;2023-01-01T06:25:10;43.72;;;31.45;;
54899;SDS011;40801;41.924;25.562;2023-01-01T06:27:36;40.63;;;31.55;;
54899;SDS011;40801;41.924;25.562;2023-01-01T06:30:04;38.05;;;31.95;;
54899;SDS011;40801;41.924;25.562;2023-01-01T06:32:31;42.78;;;34.00;;
54899;SDS011;40801;41.924;25.562;2023-01-01T06:34:57;42.83;;;33.70;;
54899;SDS011;40801;41.924;25.562;2023-01-01T06:37:22;37.28;;;32.15;;
54899;SDS011;40801;41.924;25.562;2023-01-01T06:39:47;37.55;;;33.65;;
54899;SDS011;40801;41.924;25.562;2023-01-01T06:42:13;36.22;;;31.98;;
54899;SDS011;40801;41.924;25.562;2023-01-01T06:44:38;39.80;;;33.78;;
54899;SDS011;40801;41.924;25.562;2023-01-01T06:47:04;43.40;;;34.75;;
54899;SDS011;40801;41.924;25.562;2023-01-01T06:49:29;43.92;;;37.08;;
54899;SDS011;40801;41.924;25.562;2023-01-01T06:51:55;46.20;;;36.78;;
54899;SDS011;40801;41.924;25.562;2023-01-01T06:54:20;44.53;;;35.78;;
54899;SDS011;40801;41.924;25.562;2023-01-01T06:56:46;53.35;;;38.35;;
54899;SDS011;40801;41.924;25.562;2023-01-01T06:59:11;48.38;;;37.33;;
54899;SDS011;40801;41.924;25.562;2023-01-01T07:01:37;51.05;;;39.22;;
54899;SDS011;40801;41.924;25.562;2023-01-01T07:04:07;47.75;;;42.20;;
54899;SDS011;40801;41.924;25.562;2023-01-01T07:06:36;56.80;;;42.80;;
54899;SDS011;40801;41.924;25.562;2023-01-01T07:09:02;51.75;;;41.90;;
54899;SDS011;40801;41.924;25.562;2023-01-01T07:11:28;47.75;;;42.45;;
54899;SDS011;40801;41.924;25.562;2023-01-01T07:13:53;58.78;;;42.90;;
54899;SDS011;40801;41.924;25.562;2023-01-01T07:16:19;100.88;;;84.25;;
54899;SDS011;40801;41.924;25.562;2023-01-01T07:18:45;94.72;;;74.05;;
54899;SDS011;40801;41.924;25.562;2023-01-01T07:23:53;108.03;;;92.07;;
54899;SDS011;40801;41.924;25.562;2023-01-01T07:26:23;103.13;;;89.30;;
54899;SDS011;40801;41.924;25.562;2023-01-01T07:28:49;89.50;;;77.35;;
54899;SDS011;40801;41.924;25.562;2023-01-01T07:31:14;90.95;;;78.30;;
54899;SDS011;40801;41.924;25.562;2023-01-01T07:33:39;82.95;;;72.68;;
54899;SDS011;40801;41.924;25.562;2023-01-01T07:36:05;90.35;;;74.97;;
54899;SDS011;40801;41.924;25.562;2023-01-01T07:38:31;89.95;;;76.80;;
54899;SDS011;40801;41.924;25.562;2023-01-01T07:40:56;128.43;;;109.95;;
54899;SDS011;40801;41.924;25.562;2023-01-01T07:43:21;113.85;;;101.55;;
54899;SDS011;40801;41.924;25.562;2023-01-01T07:45:47;132.05;;;117.53;;
54899;SDS011;40801;41.924;25.562;2023-01-01T07:48:13;142.18;;;122.15;;
54899;SDS011;40801;41.924;25.562;2023-01-01T07:50:39;148.13;;;131.82;;
54899;SDS011;40801;41.924;25.562;2023-01-01T07:53:05;136.68;;;122.03;;
54899;SDS011;40801;41.924;25.562;2023-01-01T07:55:31;124.88;;;111.60;;
54899;SDS011;40801;41.924;25.562;2023-01-01T07:57:58;137.90;;;117.32;;
54899;SDS011;40801;41.924;25.562;2023-01-01T08:00:23;126.57;;;112.93;;
54899;SDS011;40801;41.924;25.562;2023-01-01T08:02:49;140.52;;;119.13;;
54899;SDS011;40801;41.924;25.562;2023-01-01T08:05:15;134.77;;;114.88;;
54899;SDS011;40801;41.924;25.562;2023-01-01T08:07:44;128.98;;;110.13;;
54899;SDS011;40801;41.924;25.562;2023-01-01T08:10:13;95.15;;;84.80;;
54899;SDS011;40801;41.924;25.562;2023-01-01T08:12:40;114.72;;;96.78;;
54899;SDS011;40801;41.924;25.562;2023-01-01T08:15:05;100.57;;;85.60;;
54899;SDS011;40801;41.924;25.562;2023-01-01T08:17:31;93.00;;;79.93;;
54899;SDS011;40801;41.924;25.562;2023-01-01T08:19:57;101.97;;;89.60;;
54899;SDS011;40801;41.924;25.562;2023-01-01T08:22:22;127.55;;;112.15;;
54899;SDS011;40801;41.924;25.562;2023-01-01T08:24:47;117.80;;;100.90;;
54899;SDS011;40801;41.924;25.562;2023-01-01T08:27:13;116.05;;;98.80;;
54899;SDS011;40801;41.924;25.562;2023-01-01T08:29:40;81.40;;;72.57;;
54899;SDS011;40801;41.924;25.562;2023-01-01T08:32:05;75.40;;;66.78;;
54899;SDS011;40801;41.924;25.562;2023-01-01T08:34:31;79.65;;;71.10;;
54899;SDS011;40801;41.924;25.562;2023-01-01T08:36:56;76.45;;;68.07;;
54899;SDS011;40801;41.924;25.562;2023-01-01T08:39:23;70.05;;;61.55;;
54899;SDS011;40801;41.924;25.562;2023-01-01T08:41:49;77.35;;;69.15;;
54899;SDS011;40801;41.924;25.562;2023-01-01T08:44:15;114.32;;;103.00;;
54899;SDS011;40801;41.924;25.562;2023-01-01T08:46:40;79.22;;;70.85;;
54899;SDS011;40801;41.924;25.562;2023-01-01T08:49:06;90.22;;;80.80;;
54899;SDS011;40801;41.924;25.562;2023-01-01T08:51:31;84.55;;;75.82;;
54899;SDS011;40801;41.924;25.562;2023-01-01T08:53:57;70.88;;;63.45;;
54899;SDS011;40801;41.924;25.562;2023-01-01T08:56:22;59.75;;;53.33;;
54899;SDS011;40801;41.924;25.562;2023-01-01T08:58:48;56.08;;;50.22;;
54899;SDS011;40801;41.924;25.562;2023-01-01T09:01:13;58.45;;;52.28;;
54899;SDS011;40801;41.924;25.562;2023-01-01T09:03:39;65.13;;;58.28;;
54899;SDS011;40801;41.924;25.562;2023-01-01T09:06:04;88.28;;;79.05;;
54899;SDS011;40801;41.924;25.562;2023-01-01T09:08:30;59.72;;;53.58;;
54899;SDS011;40801;41.924;25.562;2023-01-01T09:10:57;52.55;;;47.25;;
54899;SDS011;40801;41.924;25.562;2023-01-01T09:13:27;36.53;;;32.78;;
54899;SDS011;40801;41.924;25.562;2023-01-01T09:15:53;32.97;;;29.63;;
54899;SDS011;40801;41.924;25.562;2023-01-01T09:18:19;36.38;;;32.50;;
54899;SDS011;40801;41.924;25.562;2023-01-01T09:20:44;35.72;;;32.33;;
54899;SDS011;40801;41.924;25.562;2023-01-01T09:23:10;36.38;;;32.72;;
54899;SDS011;40801;41.924;25.562;2023-01-01T09:25:35;39.35;;;35.70;;
54899;SDS011;40801;41.924;25.562;2023-01-01T09:28:02;41.50;;;37.80;;
54899;SDS011;40801;41.924;25.562;2023-01-01T09:30:30;36.15;;;32.85;;
54899;SDS011;40801;41.924;25.562;2023-01-01T09:32:55;44.35;;;40.10;;
54899;SDS011;40801;41.924;25.562;2023-01-01T09:35:21;83.47;;;74.63;;
54899;SDS011;40801;41.924;25.562;2023-01-01T09:37:46;40.90;;;37.00;;
54899;SDS011;40801;41.924;25.562;2023-01-01T09:40:30;37.47;;;34.25;;
54899;SDS011;40801;41.924;25.562;2023-01-01T09:46:14;31.80;;;28.52;;
54899;SDS011;40801;41.924;25.562;2023-01-01T09:48:50;45.58;;;41.60;;
54899;SDS011;40801;41.924;25.562;2023-01-01T09:51:20;35.15;;;32.03;;
54899;SDS011;40801;41.924;25.562;2023-01-01T09:53:59;39.42;;;35.72;;
54899;SDS011;40801;41.924;25.562;2023-01-01T09:56:31;46.03;;;41.45;;
54899;SDS011;40801;41.924;25.562;2023-01-01T09:59:00;40.83;;;36.67;;
54899;SDS011;40801;41.924;25.562;2023-01-01T10:06:43;36.22;;;33.05;;
54899;SDS011;40801;41.924;25.562;2023-01-01T10:09:41;34.65;;;31.45;;
54899;SDS011;40801;41.924;25.562;2023-01-01T10:14:54;31.20;;;28.38;;
54899;SDS011;40801;41.924;25.562;2023-01-01T10:17:36;31.70;;;28.60;;
54899;SDS011;40801;41.924;25.562;2023-01-01T10:20:09;33.45;;;30.33;;
54899;SDS011;40801;41.924;25.562;2023-01-01T10:22:43;34.10;;;30.98;;
54899;SDS011;40801;41.924;25.562;2023-01-01T10:27:44;50.88;;;46.13;;
54899;SDS011;40801;41.924;25.562;2023-01-01T10:30:14;65.43;;;58.88;;
54899;SDS011;40801;41.924;25.562;2023-01-01T10:32:45;38.28;;;34.80;;
54899;SDS011;40801;41.924;25.562;2023-01-01T10:35:13;39.45;;;35.83;;
54899;SDS011;40801;41.924;25.562;2023-01-01T10:37:41;44.60;;;40.20;;
54899;SDS011;40801;41.924;25.562;2023-01-01T10:40:19;92.38;;;82.93;;
54899;SDS011;40801;41.924;25.562;2023-01-01T10:42:57;54.63;;;49.47;;
54899;SDS011;40801;41.924;25.562;2023-01-01T10:45:36;36.67;;;33.38;;
54899;SDS011;40801;41.924;25.562;2023-01-01T10:50:51;31.10;;;28.52;;
54899;SDS011;40801;41.924;25.562;2023-01-01T10:53:20;35.08;;;31.95;;
54899;SDS011;40801;41.924;25.562;2023-01-01T10:55:49;31.30;;;28.48;;
54899;SDS011;40801;41.924;25.562;2023-01-01T11:03:37;22.92;;;20.88;;
54899;SDS011;40801;41.924;25.562;2023-01-01T11:06:36;22.88;;;20.67;;
54899;SDS011;40801;41.924;25.562;2023-01-01T11:09:04;21.73;;;19.73;;
54899;SDS011;40801;41.924;25.562;2023-01-01T11:11:53;21.02;;;19.00;;
54899;SDS011;40801;41.924;25.562;2023-01-01T11:14:21;19.00;;;17.30;;
54899;SDS011;40801;41.924;25.562;2023-01-01T11:16:51;17.92;;;16.42;;
54899;SDS011;40801;41.924;25.562;2023-01-01T11:19:39;16.17;;;14.77;;
54899;SDS011;40801;41.924;25.562;2023-01-01T11:22:05;15.68;;;14.32;;
54899;SDS011;40801;41.924;25.562;2023-01-01T11:24:32;18.60;;;16.40;;
54899;SDS011;40801;41.924;25.562;2023-01-01T11:27:12;16.92;;;15.43;;
54899;SDS011;40801;41.924;25.562;2023-01-01T11:29:43;17.88;;;16.45;;
54899;SDS011;40801;41.924;25.562;2023-01-01T11:32:08;16.42;;;14.98;;
54899;SDS011;40801;41.924;25.562;2023-01-01T11:34:43;16.70;;;15.30;;
54899;SDS011;40801;41.924;25.562;2023-01-01T11:39:42;17.55;;;15.88;;
54899;SDS011;40801;41.924;25.562;2023-01-01T11:42:20;16.60;;;15.18;;
54899;SDS011;40801;41.924;25.562;2023-01-01T11:44:52;11.52;;;10.52;;
54899;SDS011;40801;41.924;25.562;2023-01-01T11:47:22;13.88;;;12.52;;
54899;SDS011;40801;41.924;25.562;2023-01-01T11:49:55;16.13;;;14.70;;
54899;SDS011;40801;41.924;25.562;2023-01-01T11:52:34;13.63;;;12.52;;
54899;SDS011;40801;41.924;25.562;2023-01-01T11:55:03;15.88;;;14.57;;
54899;SDS011;40801;41.924;25.562;2023-01-01T11:57:36;14.30;;;13.02;;
54899;SDS011;40801;41.924;25.562;2023-01-01T12:00:08;17.38;;;15.98;;
54899;SDS011;40801;41.924;25.562;2023-01-01T12:02:51;18.00;;;16.30;;
54899;SDS011;40801;41.924;25.562;2023-01-01T12:05:36;16.33;;;14.95;;
54899;SDS011;40801;41.924;25.562;2023-01-01T12:10:59;14.98;;;13.88;;
54899;SDS011;40801;41.924;25.562;2023-01-01T12:13:34;13.93;;;12.60;;
54899;SDS011;40801;41.924;25.562;2023-01-01T12:16:13;20.70;;;18.60;;
54899;SDS011;40801;41.924;25.562;2023-01-01T12:18:46;41.30;;;34.00;;
54899;SDS011;40801;41.924;25.562;2023-01-01T12:21:25;13.77;;;12.57;;
54899;SDS011;40801;41.924;25.562;2023-01-01T12:23:52;9.35;;;8.65;;
54899;SDS011;40801;41.924;25.562;2023-01-01T12:26:21;14.65;;;13.50;;
54899;SDS011;40801;41.924;25.562;2023-01-01T12:31:44;18.42;;;16.77;;
54899;SDS011;40801;41.924;25.562;2023-01-01T12:56:34;14.23;;;12.90;;
54899;SDS011;40801;41.924;25.562;2023-01-01T12:59:05;18.40;;;16.90;;
54899;SDS011;40801;41.924;25.562;2023-01-01T13:01:36;14.15;;;12.90;;
54899;SDS011;40801;41.924;25.562;2023-01-01T13:04:11;14.48;;;13.27;;
54899;SDS011;40801;41.924;25.562;2023-01-01T13:09:16;12.85;;;11.80;;
54899;SDS011;40801;41.924;25.562;2023-01-01T13:11:45;14.13;;;13.02;;
54899;SDS011;40801;41.924;25.562;2023-01-01T13:14:16;23.10;;;21.17;;
54899;SDS011;40801;41.924;25.562;2023-01-01T13:16:52;24.63;;;22.60;;
54899;SDS011;40801;41.924;25.562;2023-01-01T13:19:32;25.52;;;23.30;;
54899;SDS011;40801;41.924;25.562;2023-01-01T13:22:35;67.28;;;61.08;;
54899;SDS011;40801;41.924;25.562;2023-01-01T13:36:36;32.72;;;29.63;;
54899;SDS011;40801;41.924;25.562;2023-01-01T13:41:31;28.48;;;25.85;;
54899;SDS011;40801;41.924;25.562;2023-01-01T13:49:28;53.63;;;48.45;;
54899;SDS011;40801;41.924;25.562;2023-01-01T13:52:14;54.22;;;48.88;;
54899;SDS011;40801;41.924;25.562;2023-01-01T14:01:27;47.90;;;43.28;;
54899;SDS011;40801;41.924;25.562;2023-01-01T14:03:33;48.35;;;43.95;;
54899;SDS011;40801;41.924;25.562;2023-01-01T14:06:08;46.85;;;42.35;;
54899;SDS011;40801;41.924;25.562;2023-01-01T14:08:36;43.47;;;39.38;;
54899;SDS011;40801;41.924;25.562;2023-01-01T14:11:14;39.78;;;36.10;;
54899;SDS011;40801;41.924;25.562;2023-01-01T14:13:42;40.30;;;36.38;;
54899;SDS011;40801;41.924;25.562;2023-01-01T14:16:08;37.58;;;33.78;;
54899;SDS011;40801;41.924;25.562;2023-01-01T14:21:18;32.97;;;30.08;;
54899;SDS011;40801;41.924;25.562;2023-01-01T14:23:55;34.15;;;30.90;;
54899;SDS011;40801;41.924;25.562;2023-01-01T14:26:24;35.45;;;31.95;;
54899;SDS011;40801;41.924;25.562;2023-01-01T14:28:54;41.28;;;37.10;;
54899;SDS011;40801;41.924;25.562;2023-01-01T14:31:22;42.33;;;37.70;;
54899;SDS011;40801;41.924;25.562;2023-01-01T14:33:51;42.72;;;38.35;;
54899;SDS011;40801;41.924;25.562;2023-01-01T14:36:23;45.17;;;38.65;;
54899;SDS011;40801;41.924;25.562;2023-01-01T14:38:52;49.13;;;42.65;;
54899;SDS011;40801;41.924;25.562;2023-01-01T14:41:21;44.17;;;39.13;;
54899;SDS011;40801;41.924;25.562;2023-01-01T14:43:52;51.75;;;44.38;;
54899;SDS011;40801;41.924;25.562;2023-01-01T14:46:21;55.17;;;45.00;;
54899;SDS011;40801;41.924;25.562;2023-01-01T14:48:49;50.50;;;45.22;;
54899;SDS011;40801;41.924;25.562;2023-01-01T14:51:18;61.42;;;51.20;;
54899;SDS011;40801;41.924;25.562;2023-01-01T14:53:49;60.53;;;52.38;;
54899;SDS011;40801;41.924;25.562;2023-01-01T14:56:28;57.42;;;51.22;;
54899;SDS011;40801;41.924;25.562;2023-01-01T15:01:46;71.18;;;61.70;;
54899;SDS011;40801;41.924;25.562;2023-01-01T15:04:22;70.85;;;61.28;;
54899;SDS011;40801;41.924;25.562;2023-01-01T15:06:54;79.70;;;69.03;;
54899;SDS011;40801;41.924;25.562;2023-01-01T15:09:20;99.07;;;83.65;;
54899;SDS011;40801;41.924;25.562;2023-01-01T15:11:46;78.72;;;68.13;;
54899;SDS011;40801;41.924;25.562;2023-01-01T15:14:31;80.50;;;68.82;;
54899;SDS011;40801;41.924;25.562;2023-01-01T15:17:01;79.80;;;69.88;;
54899;SDS011;40801;41.924;25.562;2023-01-01T15:19:31;81.63;;;72.82;;
54899;SDS011;40801;41.924;25.562;2023-01-01T15:21:58;84.80;;;75.78;;
54899;SDS011;40801;41.924;25.562;2023-01-01T15:24:24;94.05;;;82.68;;
54899;SDS011;40801;41.924;25.562;2023-01-01T15:26:57;87.28;;;77.93;;
54899;SDS011;40801;41.924;25.562;2023-01-01T15:29:29;92.40;;;79.35;;
54899;SDS011;40801;41.924;25.562;2023-01-01T15:31:58;99.22;;;87.07;;
54899;SDS011;40801;41.924;25.562;2023-01-01T15:34:29;101.45;;;89.20;;
54899;SDS011;40801;41.924;25.562;2023-01-01T15:39:43;116.05;;;93.90;;
54899;SDS011;40801;41.924;25.562;2023-01-01T15:47:51;103.68;;;90.15;;
54899;SDS011;40801;41.924;25.562;2023-01-01T15:52:47;118.45;;;105.53;;
54899;SDS011;40801;41.924;25.562;2023-01-01T15:55:15;139.10;;;115.90;;
54899;SDS011;40801;41.924;25.562;2023-01-01T15:57:45;116.78;;;104.00;;
54899;SDS011;40801;41.924;25.562;2023-01-01T16:02:45;122.50;;;104.15;;
54899;SDS011;40801;41.924;25.562;2023-01-01T16:05:14;114.80;;;97.72;;
54899;SDS011;40801;41.924;25.562;2023-01-01T16:07:42;130.75;;;109.53;;
54899;SDS011;40801;41.924;25.562;2023-01-01T16:10:15;135.50;;;112.05;;
54899;SDS011;40801;41.924;25.562;2023-01-01T16:12:41;133.60;;;116.38;;
54899;SDS011;40801;41.924;25.562;2023-01-01T16:15:07;137.57;;;113.38;;
54899;SDS011;40801;41.924;25.562;2023-01-01T16:17:39;122.03;;;107.18;;
54899;SDS011;40801;41.924;25.562;2023-01-01T16:20:04;137.38;;;118.80;;
54899;SDS011;40801;41.924;25.562;2023-01-01T16:22:30;123.35;;;105.28;;
54899;SDS011;40801;41.924;25.562;2023-01-01T16:24:56;123.35;;;105.57;;
54899;SDS011;40801;41.924;25.562;2023-01-01T16:27:21;105.70;;;92.55;;
54899;SDS011;40801;41.924;25.562;2023-01-01T16:29:46;125.85;;;108.10;;
54899;SDS011;40801;41.924;25.562;2023-01-01T16:32:14;119.03;;;99.90;;
54899;SDS011;40801;41.924;25.562;2023-01-01T16:34:41;114.65;;;97.55;;
54899;SDS011;40801;41.924;25.562;2023-01-01T16:37:06;109.55;;;95.88;;